sensor_id;sensor_type;location;lat;lon;timestamp;temperature;humidity
45549;DHT22;31270;48.328;10.096;2023-09-07T00:01:48;15.40;99.90
45549;DHT22;31270;48.328;10.096;2023-09-07T00:04:13;15.40;99.90
45549;DHT22;31270;48.328;10.096;2023-09-07T00:06:46;15.40;99.90
45549;DHT22;31270;48.328;10.096;2023-09-07T00:09:12;15.50;99.90
45549;DHT22;31270;48.328;10.096;2023-09-07T00:11:38;15.40;99.90
45549;DHT22;31270;48.328;10.096;2023-09-07T00:14:04;15.30;99.90
45549;DHT22;31270;48.328;10.096;2023-09-07T00:16:33;15.40;99.90
45549;DHT22;31270;48.328;10.096;2023-09-07T00:19:01;15.30;99.90
45549;DHT22;31270;48.328;10.096;2023-09-07T00:21:27;15.30;99.90
45549;DHT22;31270;48.328;10.096;2023-09-07T00:23:53;15.30;99.90
45549;DHT22;31270;48.328;10.096;2023-09-07T00:26:20;15.20;99.90
45549;DHT22;31270;48.328;10.096;2023-09-07T00:28:45;15.30;99.90
45549;DHT22;31270;48.328;10.096;2023-09-07T00:31:11;15.20;99.90
45549;DHT22;31270;48.328;10.096;2023-09-07T00:33:37;15.20;99.90
45549;DHT22;31270;48.328;10.096;2023-09-07T00:36:03;15.40;99.90
45549;DHT22;31270;48.328;10.096;2023-09-07T00:38:29;15.10;99.90
45549;DHT22;31270;48.328;10.096;2023-09-07T00:40:55;15.10;99.90
45549;DHT22;31270;48.328;10.096;2023-09-07T00:43:20;15.10;99.90
45549;DHT22;31270;48.328;10.096;2023-09-07T00:45:46;14.90;99.90
45549;DHT22;31270;48.328;10.096;2023-09-07T00:48:13;15.00;99.90
45549;DHT22;31270;48.328;10.096;2023-09-07T00:50:39;15.00;99.90
45549;DHT22;31270;48.328;10.096;2023-09-07T00:53:05;15.00;99.90
45549;DHT22;31270;48.328;10.096;2023-09-07T00:55:33;15.00;99.90
45549;DHT22;31270;48.328;10.096;2023-09-07T00:58:01;14.80;99.90
45549;DHT22;31270;48.328;10.096;2023-09-07T01:00:28;14.90;99.90
45549;DHT22;31270;48.328;10.096;2023-09-07T01:02:54;14.80;99.90
45549;DHT22;31270;48.328;10.096;2023-09-07T01:05:36;14.60;99.90
45549;DHT22;31270;48.328;10.096;2023-09-07T01:08:11;14.70;99.90
45549;DHT22;31270;48.328;10.096;2023-09-07T01:10:37;14.90;99.90
45549;DHT22;31270;48.328;10.096;2023-09-07T01:13:03;14.90;99.90
45549;DHT22;31270;48.328;10.096;2023-09-07T01:15:28;14.60;99.90
45549;DHT22;31270;48.328;10.096;2023-09-07T01:17:54;14.60;99.90
45549;DHT22;31270;48.328;10.096;2023-09-07T01:20:22;14.60;99.90
45549;DHT22;31270;48.328;10.096;2023-09-07T01:22:48;14.60;99.90
45549;DHT22;31270;48.328;10.096;2023-09-07T01:25:14;14.50;99.90
45549;DHT22;31270;48.328;10.096;2023-09-07T01:27:40;14.40;99.90
45549;DHT22;31270;48.328;10.096;2023-09-07T01:30:06;14.50;99.90
45549;DHT22;31270;48.328;10.096;2023-09-07T01:32:33;14.40;99.90
45549;DHT22;31270;48.328;10.096;2023-09-07T01:35:01;14.40;99.90
45549;DHT22;31270;48.328;10.096;2023-09-07T01:37:30;14.30;99.90
45549;DHT22;31270;48.328;10.096;2023-09-07T01:39:55;14.30;99.90
45549;DHT22;31270;48.328;10.096;2023-09-07T01:42:21;14.30;99.90
45549;DHT22;31270;48.328;10.096;2023-09-07T01:44:47;14.30;99.90
45549;DHT22;31270;48.328;10.096;2023-09-07T01:47:13;14.30;99.90
45549;DHT22;31270;48.328;10.096;2023-09-07T01:49:38;14.30;99.90
45549;DHT22;31270;48.328;10.096;2023-09-07T01:52:04;14.20;99.90
45549;DHT22;31270;48.328;10.096;2023-09-07T01:54:30;14.30;99.90
45549;DHT22;31270;48.328;10.096;2023-09-07T01:56:56;14.20;99.90
45549;DHT22;31270;48.328;10.096;2023-09-07T01:59:21;14.20;99.90
45549;DHT22;31270;48.328;10.096;2023-09-07T02:01:47;14.20;99.90
45549;DHT22;31270;48.328;10.096;2023-09-07T02:04:13;14.20;99.90
45549;DHT22;31270;48.328;10.096;2023-09-07T02:06:38;14.10;99.90
45549;DHT22;31270;48.328;10.096;2023-09-07T02:09:04;14.10;99.90
45549;DHT22;31270;48.328;10.096;2023-09-07T02:11:30;14.00;99.90
45549;DHT22;31270;48.328;10.096;2023-09-07T02:13:56;14.00;99.90
45549;DHT22;31270;48.328;10.096;2023-09-07T02:16:21;14.00;99.90
45549;DHT22;31270;48.328;10.096;2023-09-07T02:18:49;14.10;99.90
45549;DHT22;31270;48.328;10.096;2023-09-07T02:21:16;13.90;99.90
45549;DHT22;31270;48.328;10.096;2023-09-07T02:23:41;14.10;99.90
45549;DHT22;31270;48.328;10.096;2023-09-07T02:26:07;13.90;99.90
45549;DHT22;31270;48.328;10.096;2023-09-07T02:28:32;13.80;99.90
45549;DHT22;31270;48.328;10.096;2023-09-07T02:31:05;13.90;99.90
45549;DHT22;31270;48.328;10.096;2023-09-07T02:33:31;13.80;99.90
45549;DHT22;31270;48.328;10.096;2023-09-07T02:35:57;13.80;99.90
45549;DHT22;31270;48.328;10.096;2023-09-07T02:38:24;13.80;99.90
45549;DHT22;31270;48.328;10.096;2023-09-07T02:40:49;13.80;99.90
45549;DHT22;31270;48.328;10.096;2023-09-07T02:43:15;13.70;99.90
45549;DHT22;31270;48.328;10.096;2023-09-07T02:45:41;13.70;99.90
45549;DHT22;31270;48.328;10.096;2023-09-07T02:48:07;13.70;99.90
45549;DHT22;31270;48.328;10.096;2023-09-07T02:50:34;13.70;99.90
45549;DHT22;31270;48.328;10.096;2023-09-07T02:53:00;13.70;99.90
45549;DHT22;31270;48.328;10.096;2023-09-07T02:55:27;13.60;99.90
45549;DHT22;31270;48.328;10.096;2023-09-07T02:57:53;13.60;99.90
45549;DHT22;31270;48.328;10.096;2023-09-07T03:00:20;13.60;99.90
45549;DHT22;31270;48.328;10.096;2023-09-07T03:02:47;13.60;99.90
45549;DHT22;31270;48.328;10.096;2023-09-07T03:05:14;13.50;99.90
45549;DHT22;31270;48.328;10.096;2023-09-07T03:07:40;13.50;99.90
45549;DHT22;31270;48.328;10.096;2023-09-07T03:10:06;13.50;99.90
45549;DHT22;31270;48.328;10.096;2023-09-07T03:12:31;13.50;99.90
45549;DHT22;31270;48.328;10.096;2023-09-07T03:14:57;13.50;99.90
45549;DHT22;31270;48.328;10.096;2023-09-07T03:17:23;13.40;99.90
45549;DHT22;31270;48.328;10.096;2023-09-07T03:19:48;13.40;99.90
45549;DHT22;31270;48.328;10.096;2023-09-07T03:22:14;13.40;99.90
45549;DHT22;31270;48.328;10.096;2023-09-07T03:24:40;13.40;99.90
45549;DHT22;31270;48.328;10.096;2023-09-07T03:27:06;13.40;99.90
45549;DHT22;31270;48.328;10.096;2023-09-07T03:29:32;13.30;99.90
45549;DHT22;31270;48.328;10.096;2023-09-07T03:31:59;13.30;99.90
45549;DHT22;31270;48.328;10.096;2023-09-07T03:34:25;13.30;99.90
45549;DHT22;31270;48.328;10.096;2023-09-07T03:36:51;13.30;99.90
45549;DHT22;31270;48.328;10.096;2023-09-07T03:39:17;13.30;99.90
45549;DHT22;31270;48.328;10.096;2023-09-07T03:41:44;13.30;99.90
45549;DHT22;31270;48.328;10.096;2023-09-07T03:44:10;13.30;99.90
45549;DHT22;31270;48.328;10.096;2023-09-07T03:46:36;13.30;99.90
45549;DHT22;31270;48.328;10.096;2023-09-07T03:49:02;13.30;99.90
45549;DHT22;31270;48.328;10.096;2023-09-07T03:51:27;13.30;99.90
45549;DHT22;31270;48.328;10.096;2023-09-07T03:53:53;13.30;99.90
45549;DHT22;31270;48.328;10.096;2023-09-07T03:56:19;13.30;99.90
45549;DHT22;31270;48.328;10.096;2023-09-07T03:58:44;13.30;99.90
45549;DHT22;31270;48.328;10.096;2023-09-07T04:01:13;13.30;99.90
45549;DHT22;31270;48.328;10.096;2023-09-07T04:03:39;13.40;99.90
45549;DHT22;31270;48.328;10.096;2023-09-07T04:06:06;13.20;99.90
45549;DHT22;31270;48.328;10.096;2023-09-07T04:08:32;13.20;99.90
45549;DHT22;31270;48.328;10.096;2023-09-07T04:10:58;13.20;99.90
45549;DHT22;31270;48.328;10.096;2023-09-07T04:13:24;13.10;99.90
45549;DHT22;31270;48.328;10.096;2023-09-07T04:15:49;13.10;99.90
45549;DHT22;31270;48.328;10.096;2023-09-07T04:18:15;13.10;99.90
45549;DHT22;31270;48.328;10.096;2023-09-07T04:20:42;13.20;99.90
45549;DHT22;31270;48.328;10.096;2023-09-07T04:23:08;13.20;99.90
45549;DHT22;31270;48.328;10.096;2023-09-07T04:25:34;13.10;99.90
45549;DHT22;31270;48.328;10.096;2023-09-07T04:27:59;13.20;99.90
45549;DHT22;31270;48.328;10.096;2023-09-07T04:30:25;13.20;99.90
45549;DHT22;31270;48.328;10.096;2023-09-07T04:32:51;13.20;99.90
45549;DHT22;31270;48.328;10.096;2023-09-07T04:35:17;13.20;99.90
45549;DHT22;31270;48.328;10.096;2023-09-07T04:37:43;13.20;99.90
45549;DHT22;31270;48.328;10.096;2023-09-07T04:40:09;13.20;99.90
45549;DHT22;31270;48.328;10.096;2023-09-07T04:42:35;13.20;99.90
45549;DHT22;31270;48.328;10.096;2023-09-07T04:45:01;13.30;99.90
45549;DHT22;31270;48.328;10.096;2023-09-07T04:47:34;13.30;99.90
45549;DHT22;31270;48.328;10.096;2023-09-07T04:49:59;13.20;99.90
45549;DHT22;31270;48.328;10.096;2023-09-07T04:52:25;13.30;99.90
45549;DHT22;31270;48.328;10.096;2023-09-07T04:54:51;13.20;99.90
45549;DHT22;31270;48.328;10.096;2023-09-07T04:57:16;13.20;99.90
45549;DHT22;31270;48.328;10.096;2023-09-07T04:59:45;13.20;99.90
45549;DHT22;31270;48.328;10.096;2023-09-07T05:02:10;13.40;99.90
45549;DHT22;31270;48.328;10.096;2023-09-07T05:04:37;13.30;99.90
45549;DHT22;31270;48.328;10.096;2023-09-07T05:07:03;13.30;99.90
45549;DHT22;31270;48.328;10.096;2023-09-07T05:09:30;13.30;99.90
45549;DHT22;31270;48.328;10.096;2023-09-07T05:11:56;13.30;99.90
45549;DHT22;31270;48.328;10.096;2023-09-07T05:14:23;13.40;99.90
45549;DHT22;31270;48.328;10.096;2023-09-07T05:16:49;13.60;99.90
45549;DHT22;31270;48.328;10.096;2023-09-07T05:19:15;13.50;99.90
45549;DHT22;31270;48.328;10.096;2023-09-07T05:21:41;13.50;99.90
45549;DHT22;31270;48.328;10.096;2023-09-07T05:24:06;13.60;99.90
45549;DHT22;31270;48.328;10.096;2023-09-07T05:26:32;13.70;99.90
45549;DHT22;31270;48.328;10.096;2023-09-07T05:28:58;13.70;99.90
45549;DHT22;31270;48.328;10.096;2023-09-07T05:31:23;13.80;99.90
45549;DHT22;31270;48.328;10.096;2023-09-07T05:33:49;13.80;99.90
45549;DHT22;31270;48.328;10.096;2023-09-07T05:36:14;13.90;99.90
45549;DHT22;31270;48.328;10.096;2023-09-07T05:38:40;13.90;99.90
45549;DHT22;31270;48.328;10.096;2023-09-07T05:41:07;14.10;99.90
45549;DHT22;31270;48.328;10.096;2023-09-07T05:43:32;14.10;99.90
45549;DHT22;31270;48.328;10.096;2023-09-07T05:45:58;14.20;99.90
45549;DHT22;31270;48.328;10.096;2023-09-07T05:48:23;14.20;99.90
45549;DHT22;31270;48.328;10.096;2023-09-07T05:50:49;14.20;99.90
45549;DHT22;31270;48.328;10.096;2023-09-07T05:53:14;14.30;99.90
45549;DHT22;31270;48.328;10.096;2023-09-07T05:55:40;14.30;99.90
45549;DHT22;31270;48.328;10.096;2023-09-07T05:58:08;14.40;99.90
45549;DHT22;31270;48.328;10.096;2023-09-07T06:00:35;14.50;99.90
45549;DHT22;31270;48.328;10.096;2023-09-07T06:03:01;14.70;99.90
45549;DHT22;31270;48.328;10.096;2023-09-07T06:05:27;14.60;99.90
45549;DHT22;31270;48.328;10.096;2023-09-07T06:07:53;14.80;99.90
45549;DHT22;31270;48.328;10.096;2023-09-07T06:10:19;14.80;99.90
45549;DHT22;31270;48.328;10.096;2023-09-07T06:12:45;14.90;99.90
45549;DHT22;31270;48.328;10.096;2023-09-07T06:15:11;15.00;99.90
45549;DHT22;31270;48.328;10.096;2023-09-07T06:17:36;15.10;99.90
45549;DHT22;31270;48.328;10.096;2023-09-07T06:20:03;15.30;99.90
45549;DHT22;31270;48.328;10.096;2023-09-07T06:22:28;15.40;99.90
45549;DHT22;31270;48.328;10.096;2023-09-07T06:24:54;15.50;99.90
45549;DHT22;31270;48.328;10.096;2023-09-07T06:27:20;15.60;99.90
45549;DHT22;31270;48.328;10.096;2023-09-07T06:29:45;15.70;99.90
45549;DHT22;31270;48.328;10.096;2023-09-07T06:32:11;15.90;99.90
45549;DHT22;31270;48.328;10.096;2023-09-07T06:34:37;16.00;99.90
45549;DHT22;31270;48.328;10.096;2023-09-07T06:37:03;16.20;99.90
45549;DHT22;31270;48.328;10.096;2023-09-07T06:39:29;16.20;99.90
45549;DHT22;31270;48.328;10.096;2023-09-07T06:41:54;16.30;99.90
45549;DHT22;31270;48.328;10.096;2023-09-07T06:44:20;16.30;99.90
45549;DHT22;31270;48.328;10.096;2023-09-07T06:46:45;16.60;99.90
45549;DHT22;31270;48.328;10.096;2023-09-07T06:49:12;16.60;99.90
45549;DHT22;31270;48.328;10.096;2023-09-07T06:51:38;16.60;99.90
45549;DHT22;31270;48.328;10.096;2023-09-07T06:54:03;16.70;99.90
45549;DHT22;31270;48.328;10.096;2023-09-07T06:56:29;16.80;99.90
45549;DHT22;31270;48.328;10.096;2023-09-07T06:58:56;17.00;99.90
45549;DHT22;31270;48.328;10.096;2023-09-07T07:01:22;17.10;99.90
45549;DHT22;31270;48.328;10.096;2023-09-07T07:03:47;17.20;99.90
45549;DHT22;31270;48.328;10.096;2023-09-07T07:06:14;17.40;99.90
45549;DHT22;31270;48.328;10.096;2023-09-07T07:08:40;17.40;99.90
45549;DHT22;31270;48.328;10.096;2023-09-07T07:11:05;17.60;99.90
45549;DHT22;31270;48.328;10.096;2023-09-07T07:13:31;17.70;99.90
45549;DHT22;31270;48.328;10.096;2023-09-07T07:15:56;17.80;99.90
45549;DHT22;31270;48.328;10.096;2023-09-07T07:18:22;17.80;99.90
45549;DHT22;31270;48.328;10.096;2023-09-07T07:20:48;17.90;99.90
45549;DHT22;31270;48.328;10.096;2023-09-07T07:23:14;17.90;99.90
45549;DHT22;31270;48.328;10.096;2023-09-07T07:25:39;17.90;99.90
45549;DHT22;31270;48.328;10.096;2023-09-07T07:28:06;18.00;99.90
45549;DHT22;31270;48.328;10.096;2023-09-07T07:30:33;18.10;99.90
45549;DHT22;31270;48.328;10.096;2023-09-07T07:32:59;18.20;99.90
45549;DHT22;31270;48.328;10.096;2023-09-07T07:35:25;18.30;99.90
45549;DHT22;31270;48.328;10.096;2023-09-07T07:37:51;18.40;99.90
45549;DHT22;31270;48.328;10.096;2023-09-07T07:40:17;18.50;99.90
45549;DHT22;31270;48.328;10.096;2023-09-07T07:42:46;18.60;99.90
45549;DHT22;31270;48.328;10.096;2023-09-07T07:45:13;18.80;99.90
45549;DHT22;31270;48.328;10.096;2023-09-07T07:47:40;19.00;99.90
45549;DHT22;31270;48.328;10.096;2023-09-07T07:50:06;19.10;99.90
45549;DHT22;31270;48.328;10.096;2023-09-07T07:52:32;19.30;99.90
45549;DHT22;31270;48.328;10.096;2023-09-07T07:54:58;19.50;99.90
45549;DHT22;31270;48.328;10.096;2023-09-07T07:57:23;19.50;99.90
45549;DHT22;31270;48.328;10.096;2023-09-07T07:59:49;19.60;99.90
45549;DHT22;31270;48.328;10.096;2023-09-07T08:02:14;19.80;99.90
45549;DHT22;31270;48.328;10.096;2023-09-07T08:04:40;19.90;99.90
45549;DHT22;31270;48.328;10.096;2023-09-07T08:07:06;20.00;99.90
45549;DHT22;31270;48.328;10.096;2023-09-07T08:09:34;20.20;99.90
45549;DHT22;31270;48.328;10.096;2023-09-07T08:11:59;20.30;99.90
45549;DHT22;31270;48.328;10.096;2023-09-07T08:14:28;20.30;99.90
45549;DHT22;31270;48.328;10.096;2023-09-07T08:16:54;20.40;99.90
45549;DHT22;31270;48.328;10.096;2023-09-07T08:19:20;20.60;99.90
45549;DHT22;31270;48.328;10.096;2023-09-07T08:21:45;20.70;99.90
45549;DHT22;31270;48.328;10.096;2023-09-07T08:24:11;20.70;99.90
45549;DHT22;31270;48.328;10.096;2023-09-07T08:26:37;21.00;99.90
45549;DHT22;31270;48.328;10.096;2023-09-07T08:29:04;21.20;99.90
45549;DHT22;31270;48.328;10.096;2023-09-07T08:31:37;21.30;99.90
45549;DHT22;31270;48.328;10.096;2023-09-07T08:34:07;21.40;99.90
45549;DHT22;31270;48.328;10.096;2023-09-07T08:36:37;21.40;99.90
45549;DHT22;31270;48.328;10.096;2023-09-07T08:39:04;21.60;99.90
45549;DHT22;31270;48.328;10.096;2023-09-07T08:41:42;21.70;99.90
45549;DHT22;31270;48.328;10.096;2023-09-07T08:44:19;22.00;99.90
45549;DHT22;31270;48.328;10.096;2023-09-07T08:46:48;22.10;99.90
45549;DHT22;31270;48.328;10.096;2023-09-07T08:49:15;22.30;99.90
45549;DHT22;31270;48.328;10.096;2023-09-07T08:51:45;22.50;99.90
45549;DHT22;31270;48.328;10.096;2023-09-07T08:54:12;22.50;99.90
45549;DHT22;31270;48.328;10.096;2023-09-07T08:56:37;22.40;99.90
45549;DHT22;31270;48.328;10.096;2023-09-07T08:59:03;22.50;99.90
45549;DHT22;31270;48.328;10.096;2023-09-07T09:01:30;22.70;99.90
45549;DHT22;31270;48.328;10.096;2023-09-07T09:03:57;23.00;99.90
45549;DHT22;31270;48.328;10.096;2023-09-07T09:06:23;23.00;99.90
45549;DHT22;31270;48.328;10.096;2023-09-07T09:08:56;23.20;99.90
45549;DHT22;31270;48.328;10.096;2023-09-07T09:11:23;23.30;99.90
45549;DHT22;31270;48.328;10.096;2023-09-07T09:13:51;23.50;99.90
45549;DHT22;31270;48.328;10.096;2023-09-07T09:16:16;23.50;99.90
45549;DHT22;31270;48.328;10.096;2023-09-07T09:18:56;23.40;99.90
45549;DHT22;31270;48.328;10.096;2023-09-07T09:21:23;23.50;99.90
45549;DHT22;31270;48.328;10.096;2023-09-07T09:23:50;23.70;99.90
45549;DHT22;31270;48.328;10.096;2023-09-07T09:26:17;23.60;99.90
45549;DHT22;31270;48.328;10.096;2023-09-07T09:28:43;23.70;99.90
45549;DHT22;31270;48.328;10.096;2023-09-07T09:31:13;23.80;99.90
45549;DHT22;31270;48.328;10.096;2023-09-07T09:33:40;23.90;99.90
45549;DHT22;31270;48.328;10.096;2023-09-07T09:36:07;24.00;99.90
45549;DHT22;31270;48.328;10.096;2023-09-07T09:38:33;24.10;99.90
45549;DHT22;31270;48.328;10.096;2023-09-07T09:41:09;24.50;99.90
45549;DHT22;31270;48.328;10.096;2023-09-07T09:43:34;24.40;99.90
45549;DHT22;31270;48.328;10.096;2023-09-07T09:46:00;24.50;99.90
45549;DHT22;31270;48.328;10.096;2023-09-07T09:48:32;24.70;99.90
45549;DHT22;31270;48.328;10.096;2023-09-07T09:50:59;24.80;99.90
45549;DHT22;31270;48.328;10.096;2023-09-07T09:53:26;24.80;99.90
45549;DHT22;31270;48.328;10.096;2023-09-07T09:55:56;24.70;99.90
45549;DHT22;31270;48.328;10.096;2023-09-07T09:58:23;24.80;99.90
45549;DHT22;31270;48.328;10.096;2023-09-07T10:00:51;25.00;99.90
45549;DHT22;31270;48.328;10.096;2023-09-07T10:03:31;25.00;99.90
45549;DHT22;31270;48.328;10.096;2023-09-07T10:06:28;25.20;99.90
45549;DHT22;31270;48.328;10.096;2023-09-07T10:09:03;25.40;99.90
45549;DHT22;31270;48.328;10.096;2023-09-07T10:11:35;25.50;99.90
45549;DHT22;31270;48.328;10.096;2023-09-07T10:14:03;25.60;99.90
45549;DHT22;31270;48.328;10.096;2023-09-07T10:16:41;25.60;99.90
45549;DHT22;31270;48.328;10.096;2023-09-07T10:19:17;25.70;99.90
45549;DHT22;31270;48.328;10.096;2023-09-07T10:21:43;25.90;99.90
45549;DHT22;31270;48.328;10.096;2023-09-07T10:24:10;25.70;99.90
45549;DHT22;31270;48.328;10.096;2023-09-07T10:26:36;25.90;99.90
45549;DHT22;31270;48.328;10.096;2023-09-07T10:29:02;26.00;99.90
45549;DHT22;31270;48.328;10.096;2023-09-07T10:31:29;26.00;99.90
45549;DHT22;31270;48.328;10.096;2023-09-07T10:34:10;25.90;99.90
45549;DHT22;31270;48.328;10.096;2023-09-07T10:36:37;26.10;99.90
45549;DHT22;31270;48.328;10.096;2023-09-07T10:39:03;26.30;99.90
45549;DHT22;31270;48.328;10.096;2023-09-07T10:41:40;26.50;99.90
45549;DHT22;31270;48.328;10.096;2023-09-07T10:44:07;26.70;99.90
45549;DHT22;31270;48.328;10.096;2023-09-07T10:46:33;26.80;99.90
45549;DHT22;31270;48.328;10.096;2023-09-07T10:48:58;26.90;99.90
45549;DHT22;31270;48.328;10.096;2023-09-07T10:51:24;26.80;99.90
45549;DHT22;31270;48.328;10.096;2023-09-07T10:53:50;27.10;99.90
45549;DHT22;31270;48.328;10.096;2023-09-07T10:56:16;27.00;99.90
45549;DHT22;31270;48.328;10.096;2023-09-07T10:58:42;26.90;99.90
45549;DHT22;31270;48.328;10.096;2023-09-07T11:01:09;26.80;99.90
45549;DHT22;31270;48.328;10.096;2023-09-07T11:03:36;27.10;99.90
45549;DHT22;31270;48.328;10.096;2023-09-07T11:06:19;27.40;99.90
45549;DHT22;31270;48.328;10.096;2023-09-07T11:08:46;27.50;99.90
45549;DHT22;31270;48.328;10.096;2023-09-07T11:11:12;27.40;99.90
45549;DHT22;31270;48.328;10.096;2023-09-07T11:13:38;27.60;99.90
45549;DHT22;31270;48.328;10.096;2023-09-07T11:16:07;27.60;99.90
45549;DHT22;31270;48.328;10.096;2023-09-07T11:18:34;27.70;99.90
45549;DHT22;31270;48.328;10.096;2023-09-07T11:21:03;27.70;99.90
45549;DHT22;31270;48.328;10.096;2023-09-07T11:23:31;27.70;99.90
45549;DHT22;31270;48.328;10.096;2023-09-07T11:26:07;27.90;99.90
45549;DHT22;31270;48.328;10.096;2023-09-07T11:28:34;27.80;99.90
45549;DHT22;31270;48.328;10.096;2023-09-07T11:30:59;28.10;99.90
45549;DHT22;31270;48.328;10.096;2023-09-07T11:33:26;28.20;99.90
45549;DHT22;31270;48.328;10.096;2023-09-07T11:35:53;28.30;99.90
45549;DHT22;31270;48.328;10.096;2023-09-07T11:38:21;28.30;99.90
45549;DHT22;31270;48.328;10.096;2023-09-07T11:40:48;28.20;99.90
45549;DHT22;31270;48.328;10.096;2023-09-07T11:43:15;28.20;99.90
45549;DHT22;31270;48.328;10.096;2023-09-07T11:45:42;28.20;99.90
45549;DHT22;31270;48.328;10.096;2023-09-07T11:48:09;28.30;99.90
45549;DHT22;31270;48.328;10.096;2023-09-07T11:50:36;28.50;99.90
45549;DHT22;31270;48.328;10.096;2023-09-07T11:53:07;28.60;99.90
45549;DHT22;31270;48.328;10.096;2023-09-07T11:55:33;28.70;99.90
45549;DHT22;31270;48.328;10.096;2023-09-07T11:58:00;29.00;99.90
45549;DHT22;31270;48.328;10.096;2023-09-07T12:00:25;28.80;99.90
45549;DHT22;31270;48.328;10.096;2023-09-07T12:02:57;28.70;99.90
45549;DHT22;31270;48.328;10.096;2023-09-07T12:05:23;28.60;99.90
45549;DHT22;31270;48.328;10.096;2023-09-07T12:07:49;28.50;99.90
45549;DHT22;31270;48.328;10.096;2023-09-07T12:10:15;28.60;99.90
45549;DHT22;31270;48.328;10.096;2023-09-07T12:12:41;28.70;99.90
45549;DHT22;31270;48.328;10.096;2023-09-07T12:15:08;29.00;99.90
45549;DHT22;31270;48.328;10.096;2023-09-07T12:17:34;29.10;99.90
45549;DHT22;31270;48.328;10.096;2023-09-07T12:20:00;29.20;99.90
45549;DHT22;31270;48.328;10.096;2023-09-07T12:22:26;29.40;99.90
45549;DHT22;31270;48.328;10.096;2023-09-07T12:24:52;29.50;99.90
45549;DHT22;31270;48.328;10.096;2023-09-07T12:27:18;29.40;99.90
45549;DHT22;31270;48.328;10.096;2023-09-07T12:29:44;29.60;99.90
45549;DHT22;31270;48.328;10.096;2023-09-07T12:32:10;29.40;99.90
45549;DHT22;31270;48.328;10.096;2023-09-07T12:34:36;29.40;99.90
45549;DHT22;31270;48.328;10.096;2023-09-07T12:37:02;29.40;99.90
45549;DHT22;31270;48.328;10.096;2023-09-07T12:39:30;29.30;99.90
45549;DHT22;31270;48.328;10.096;2023-09-07T12:41:56;29.30;99.90
45549;DHT22;31270;48.328;10.096;2023-09-07T12:44:22;29.40;99.90
45549;DHT22;31270;48.328;10.096;2023-09-07T12:46:47;29.30;99.90
45549;DHT22;31270;48.328;10.096;2023-09-07T12:49:13;29.30;99.90
45549;DHT22;31270;48.328;10.096;2023-09-07T12:51:41;29.50;99.90
45549;DHT22;31270;48.328;10.096;2023-09-07T12:54:06;29.60;99.90
45549;DHT22;31270;48.328;10.096;2023-09-07T12:56:32;29.70;99.90
45549;DHT22;31270;48.328;10.096;2023-09-07T12:58:58;29.50;99.90
45549;DHT22;31270;48.328;10.096;2023-09-07T13:01:25;29.20;99.90
45549;DHT22;31270;48.328;10.096;2023-09-07T13:03:51;29.20;99.90
45549;DHT22;31270;48.328;10.096;2023-09-07T13:06:17;29.20;99.90
45549;DHT22;31270;48.328;10.096;2023-09-07T13:08:43;29.40;99.90
45549;DHT22;31270;48.328;10.096;2023-09-07T13:11:10;29.50;99.90
45549;DHT22;31270;48.328;10.096;2023-09-07T13:13:35;29.10;99.90
45549;DHT22;31270;48.328;10.096;2023-09-07T13:16:01;29.10;99.90
45549;DHT22;31270;48.328;10.096;2023-09-07T13:18:27;29.20;99.90
45549;DHT22;31270;48.328;10.096;2023-09-07T13:20:53;29.30;99.90
45549;DHT22;31270;48.328;10.096;2023-09-07T13:23:25;29.30;99.90
45549;DHT22;31270;48.328;10.096;2023-09-07T13:25:51;29.50;99.90
45549;DHT22;31270;48.328;10.096;2023-09-07T13:28:16;29.50;99.90
45549;DHT22;31270;48.328;10.096;2023-09-07T13:30:42;29.30;99.90
45549;DHT22;31270;48.328;10.096;2023-09-07T13:33:07;29.20;99.90
45549;DHT22;31270;48.328;10.096;2023-09-07T13:35:33;29.20;99.90
45549;DHT22;31270;48.328;10.096;2023-09-07T13:37:59;29.10;99.90
45549;DHT22;31270;48.328;10.096;2023-09-07T13:40:24;29.30;99.90
45549;DHT22;31270;48.328;10.096;2023-09-07T13:42:55;29.30;99.90
45549;DHT22;31270;48.328;10.096;2023-09-07T13:45:20;29.30;99.90
45549;DHT22;31270;48.328;10.096;2023-09-07T13:47:46;29.00;99.90
45549;DHT22;31270;48.328;10.096;2023-09-07T13:50:12;29.00;99.90
45549;DHT22;31270;48.328;10.096;2023-09-07T13:52:37;28.90;99.90
45549;DHT22;31270;48.328;10.096;2023-09-07T13:55:04;28.80;99.90
45549;DHT22;31270;48.328;10.096;2023-09-07T13:57:30;29.20;99.90
45549;DHT22;31270;48.328;10.096;2023-09-07T13:59:56;29.30;99.90
45549;DHT22;31270;48.328;10.096;2023-09-07T14:02:21;29.30;99.90
45549;DHT22;31270;48.328;10.096;2023-09-07T14:04:47;29.20;99.90
45549;DHT22;31270;48.328;10.096;2023-09-07T14:07:15;29.20;99.90
45549;DHT22;31270;48.328;10.096;2023-09-07T14:09:40;29.00;99.90
45549;DHT22;31270;48.328;10.096;2023-09-07T14:12:06;28.90;99.90
45549;DHT22;31270;48.328;10.096;2023-09-07T14:14:32;29.00;99.90
45549;DHT22;31270;48.328;10.096;2023-09-07T14:16:57;29.00;99.90
45549;DHT22;31270;48.328;10.096;2023-09-07T14:19:25;28.90;99.90
45549;DHT22;31270;48.328;10.096;2023-09-07T14:21:52;28.80;99.90
45549;DHT22;31270;48.328;10.096;2023-09-07T14:24:18;28.60;99.90
45549;DHT22;31270;48.328;10.096;2023-09-07T14:26:44;28.60;99.90
45549;DHT22;31270;48.328;10.096;2023-09-07T14:29:09;28.60;99.90
45549;DHT22;31270;48.328;10.096;2023-09-07T14:31:35;28.50;99.90
45549;DHT22;31270;48.328;10.096;2023-09-07T14:34:00;28.30;99.90
45549;DHT22;31270;48.328;10.096;2023-09-07T14:36:26;28.30;99.90
45549;DHT22;31270;48.328;10.096;2023-09-07T14:38:52;28.30;99.90
45549;DHT22;31270;48.328;10.096;2023-09-07T14:41:17;28.30;99.90
45549;DHT22;31270;48.328;10.096;2023-09-07T14:43:45;28.20;99.90
45549;DHT22;31270;48.328;10.096;2023-09-07T14:46:11;28.20;99.90
45549;DHT22;31270;48.328;10.096;2023-09-07T14:48:37;28.10;99.90
45549;DHT22;31270;48.328;10.096;2023-09-07T14:51:02;28.20;99.90
45549;DHT22;31270;48.328;10.096;2023-09-07T14:53:28;28.10;99.90
45549;DHT22;31270;48.328;10.096;2023-09-07T14:55:56;28.10;99.90
45549;DHT22;31270;48.328;10.096;2023-09-07T14:58:22;28.00;99.90
45549;DHT22;31270;48.328;10.096;2023-09-07T15:00:47;28.00;99.90
45549;DHT22;31270;48.328;10.096;2023-09-07T15:03:13;28.10;99.90
45549;DHT22;31270;48.328;10.096;2023-09-07T15:05:38;28.10;99.90
45549;DHT22;31270;48.328;10.096;2023-09-07T15:08:04;27.90;99.90
45549;DHT22;31270;48.328;10.096;2023-09-07T15:10:32;28.00;99.90
45549;DHT22;31270;48.328;10.096;2023-09-07T15:13:05;27.90;99.90